Time;durP1;ratioP1;P1;durP2;ratioP2;P2;SDS_P1;SDS_P2;PMS_P1;PMS_P2;Temp;Humidity;BMP_temperature;BMP_pressure;BME280_temperature;BME280_humidity;BME280_pressure;Samples;Min_cycle;Max_cycle;Signal;HPM_P1;HPM_P2
2023/04/10 00:00:18;;;;;;;10.23;5.50;;;;;;;-145.69;100.00;52416.66;5074259;28;20195;-81
2023/04/10 00:02:45;;;;;;;11.10;5.07;;;;;;;-145.69;100.00;52412.69;5073798;28;20653;-81
2023/04/10 00:05:11;;;;;;;11.23;5.37;;;;;;;-145.69;100.00;52468.16;5073508;28;20194;-81
2023/04/10 00:07:38;;;;;;;8.27;4.80;;;;;;;-145.69;100.00;52460.22;5073631;28;20226;-80
2023/04/10 00:10:06;;;;;;;11.57;5.53;;;;;;;-145.69;100.00;52438.44;5073694;28;20206;-81
2023/04/10 00:12:33;;;;;;;9.93;5.37;;;;;;;-145.69;100.00;52412.69;5073775;28;20202;-80
2023/04/10 00:14:59;;;;;;;12.73;5.20;;;;;;;-145.69;100.00;52414.69;5073767;28;20605;-80
2023/04/10 00:17:26;;;;;;;9.67;5.43;;;;;;;-145.69;100.00;52442.41;5073562;28;20202;-80
2023/04/10 00:19:52;;;;;;;11.13;5.43;;;;;;;-145.69;100.00;52404.78;5072954;28;20558;-80
2023/04/10 00:22:19;;;;;;;11.97;5.27;;;;;;;-145.69;100.00;52408.75;5073424;28;20206;-80
2023/04/10 00:24:45;;;;;;;9.67;5.20;;;;;;;-145.69;100.00;52400.81;5069767;28;20211;-80
2023/04/10 00:27:13;;;;;;;11.27;5.63;;;;;;;-145.69;100.00;52452.31;5073562;28;20241;-80
2023/04/10 00:29:39;;;;;;;8.90;4.77;;;;;;;-145.69;100.00;52400.81;5073328;28;20195;-80
2023/04/10 00:32:06;;;;;;;9.40;5.43;;;;;;;-145.69;100.00;52400.81;5073161;28;20286;-80
2023/04/10 00:34:32;;;;;;;7.33;4.97;;;;;;;-145.69;100.00;52394.88;5073516;28;20565;-80
2023/04/10 00:36:59;;;;;;;11.87;4.90;;;;;;;-145.69;100.00;52388.94;5073545;28;20248;-80
2023/04/10 00:39:25;;;;;;;9.17;4.77;;;;;;;-145.69;99.44;52416.66;5073415;28;20203;-80
2023/04/10 00:41:52;;;;;;;10.00;4.77;;;;;;;-145.69;98.35;52388.94;5073102;28;20206;-81
2023/04/10 00:44:20;;;;;;;9.67;5.40;;;;;;;-145.69;99.37;52428.53;5073306;28;20257;-80
2023/04/10 00:46:46;;;;;;;10.50;5.43;;;;;;;-145.69;100.00;52424.59;5072579;28;20203;-81
2023/04/10 00:49:13;;;;;;;8.67;4.27;;;;;;;-145.69;99.92;52438.44;5074208;28;20234;-81
2023/04/10 00:51:40;;;;;;;9.77;5.13;;;;;;;-145.69;100.00;52410.72;5073559;28;20194;-81
2023/04/10 00:54:09;;;;;;;9.73;4.83;;;;;;;-145.69;100.00;52416.66;5073651;28;20199;-80
2023/04/10 00:56:36;;;;;;;9.60;4.80;;;;;;;-145.69;100.00;52432.50;5073183;28;20207;-81
2023/04/10 00:59:03;;;;;;;9.63;4.67;;;;;;;-145.69;100.00;52422.59;5072889;28;20210;-81
2023/04/10 01:01:31;;;;;;;9.00;5.23;;;;;;;-145.69;100.00;52448.34;5073214;28;20215;-81
2023/04/10 01:03:58;;;;;;;10.17;4.97;;;;;;;-145.69;100.00;52414.69;5073307;28;20198;-81
2023/04/10 01:06:33;;;;;;;9.43;5.07;;;;;;;-145.69;100.00;52432.50;5071433;28;20680;-80
2023/04/10 01:09:10;;;;;;;9.20;4.77;;;;;;;-145.69;100.00;52432.50;5073282;28;20226;-80
2023/04/10 01:11:48;;;;;;;7.57;4.20;;;;;;;-145.69;100.00;52396.84;5073073;28;20195;-80
2023/04/10 01:14:23;;;;;;;8.33;4.47;;;;;;;-145.69;100.00;52424.59;5072612;28;20198;-80
2023/04/10 01:16:57;;;;;;;9.13;4.30;;;;;;;-145.69;98.54;52426.56;5073232;28;20201;-79
2023/04/10 01:19:30;;;;;;;8.63;4.70;;;;;;;-145.69;100.00;52448.34;5072958;28;20205;-81
2023/04/10 01:22:02;;;;;;;9.87;5.07;;;;;;;-145.69;100.00;52408.75;5072801;28;20213;-80
2023/04/10 01:24:48;;;;;;;8.87;4.47;;;;;;;-145.69;100.00;52402.78;5072577;28;20665;-80
2023/04/10 01:27:36;;;;;;;9.50;4.60;;;;;;;-145.69;100.00;52404.78;5072876;28;20198;-80
2023/04/10 01:30:06;;;;;;;8.20;4.47;;;;;;;-145.69;98.50;52436.47;5072571;28;20696;-80
2023/04/10 01:32:36;;;;;;;8.17;4.53;;;;;;;-145.69;100.00;52402.78;5072630;28;20225;-80
2023/04/10 01:35:07;;;;;;;8.23;4.63;;;;;;;-145.69;100.00;52388.94;5074478;28;20201;-80
2023/04/10 01:37:38;;;;;;;9.53;5.20;;;;;;;-145.69;100.00;52448.34;5072889;28;20563;-80
2023/04/10 01:40:10;;;;;;;9.70;4.73;;;;;;;-145.69;100.00;52400.81;5072769;28;20252;-80
2023/04/10 01:42:44;;;;;;;7.20;4.30;;;;;;;-145.69;100.00;52398.84;5072340;28;20226;-80
2023/04/10 01:45:16;;;;;;;8.07;4.40;;;;;;;-145.69;100.00;52438.44;5072589;28;20198;-80
2023/04/10 01:47:43;;;;;;;8.70;4.60;;;;;;;-145.69;100.00;52424.59;5072282;28;20673;-80
2023/04/10 01:50:11;;;;;;;10.90;4.63;;;;;;;-145.69;100.00;52426.56;5072503;28;20211;-80
2023/04/10 01:52:39;;;;;;;8.40;4.17;;;;;;;-145.69;100.00;52416.66;5072613;28;20221;-80
2023/04/10 01:55:07;;;;;;;8.50;4.13;;;;;;;-145.69;100.00;52448.34;5072475;28;20203;-80
2023/04/10 01:57:34;;;;;;;7.63;4.60;;;;;;;-145.69;100.00;52414.69;5074352;28;20202;-80
2023/04/10 02:00:01;;;;;;;8.23;4.53;;;;;;;-145.69;100.00;52383.00;5076103;28;20210;-81
2023/04/10 02:02:31;;;;;;;8.40;4.63;;;;;;;-145.69;100.00;52392.91;5076222;28;20226;-81
2023/04/10 02:04:58;;;;;;;11.83;4.60;;;;;;;-145.69;97.20;52398.84;5076796;28;20205;-80
2023/04/10 02:07:31;;;;;;;7.87;4.17;;;;;;;-145.69;97.54;52408.75;5076105;28;20202;-80
2023/04/10 02:10:02;;;;;;;8.57;3.90;;;;;;;-145.69;98.24;52428.53;5075747;28;20773;-80
2023/04/10 02:12:31;;;;;;;8.00;4.23;;;;;;;-145.69;99.41;52404.78;5075644;28;20206;-80
2023/04/10 02:15:01;;;;;;;10.73;4.40;;;;;;;-145.69;99.26;52424.59;5075884;28;20572;-80
2023/04/10 02:17:29;;;;;;;10.13;4.30;;;;;;;-145.69;98.34;52367.16;5076035;28;20207;-80
2023/04/10 02:19:58;;;;;;;7.10;4.00;;;;;;;-145.69;98.50;52416.66;5071707;28;20199;-80
2023/04/10 02:22:26;;;;;;;6.90;4.10;;;;;;;-145.69;98.73;52432.50;5055973;28;20196;-80
2023/04/10 02:24:52;;;;;;;8.87;4.70;;;;;;;-145.69;99.02;52428.53;5055701;28;20199;-80
2023/04/10 02:27:27;;;;;;;8.77;4.40;;;;;;;-145.69;99.90;52392.91;5055513;28;20225;-80
2023/04/10 02:29:53;;;;;;;7.70;4.37;;;;;;;-145.69;97.50;52418.63;5066875;28;20218;-79
2023/04/10 02:32:20;;;;;;;8.07;4.03;;;;;;;-145.69;96.72;52464.19;5075701;28;20207;-81
2023/04/10 02:34:46;;;;;;;6.60;4.07;;;;;;;-145.69;95.68;52412.69;5075382;28;20203;-80
2023/04/10 02:37:15;;;;;;;10.63;4.47;;;;;;;-145.69;95.58;52432.50;5075735;28;20198;-80
2023/04/10 02:39:42;;;;;;;8.93;4.13;;;;;;;-145.69;94.97;52440.44;5075609;28;20203;-80
2023/04/10 02:42:08;;;;;;;7.50;4.07;;;;;;;-145.69;95.05;52446.38;5075567;28;20205;-80
2023/04/10 02:44:34;;;;;;;8.37;4.03;;;;;;;-145.69;96.15;52424.59;5074990;28;20239;-80
2023/04/10 02:47:01;;;;;;;7.73;4.00;;;;;;;-145.69;94.88;52420.63;5075501;28;20209;-80
2023/04/10 02:49:28;;;;;;;7.80;3.90;;;;;;;-145.69;95.25;52438.44;5075410;28;20230;-81
2023/04/10 02:51:55;;;;;;;7.90;3.83;;;;;;;-145.69;95.08;52355.28;5074995;28;20229;-80
2023/04/10 02:54:23;;;;;;;8.67;3.93;;;;;;;-145.69;93.29;52432.50;5075250;28;20233;-81
2023/04/10 02:56:49;;;;;;;6.60;3.90;;;;;;;-145.69;92.48;52432.50;5075589;28;20202;-81
2023/04/10 02:59:16;;;;;;;7.47;3.80;;;;;;;-145.69;90.72;52446.38;5075103;28;20194;-81
2023/04/10 03:01:43;;;;;;;6.93;4.07;;;;;;;-145.69;89.84;52414.69;5075423;28;20202;-81
2023/04/10 03:04:09;;;;;;;6.17;3.43;;;;;;;-145.69;91.37;52416.66;5075206;28;20345;-81
2023/04/10 03:06:35;;;;;;;6.17;3.60;;;;;;;-145.69;89.80;52396.84;5075631;28;20658;-81
2023/04/10 03:09:02;;;;;;;5.33;3.63;;;;;;;-145.69;93.78;52420.63;5073854;28;20229;-81
2023/04/10 03:11:30;;;;;;;6.80;3.33;;;;;;;-145.69;93.22;52432.50;5075287;28;20214;-81
2023/04/10 03:13:57;;;;;;;5.40;3.00;;;;;;;-145.69;93.84;52440.44;5074868;28;20288;-81
2023/04/10 03:16:24;;;;;;;6.10;3.47;;;;;;;-145.69;96.32;52408.75;5074500;28;20710;-81
2023/04/10 03:18:51;;;;;;;5.70;3.50;;;;;;;-145.69;100.00;52400.81;5074915;28;20207;-81
2023/04/10 03:21:17;;;;;;;5.97;3.17;;;;;;;-145.69;100.00;52420.63;5074352;28;20233;-80
2023/04/10 03:23:44;;;;;;;5.43;3.20;;;;;;;-145.69;100.00;52424.59;5074529;28;20203;-80
2023/04/10 03:26:10;;;;;;;5.90;3.47;;;;;;;-145.69;100.00;52402.78;5074879;28;20214;-81
2023/04/10 03:28:38;;;;;;;5.57;3.30;;;;;;;-145.69;100.00;52390.91;5074567;28;20238;-80
2023/04/10 03:31:05;;;;;;;7.57;3.63;;;;;;;-145.69;100.00;52428.53;5074498;28;20199;-81
2023/04/10 03:33:32;;;;;;;7.10;3.60;;;;;;;-145.69;100.00;52440.44;5074669;28;20199;-81
2023/04/10 03:35:58;;;;;;;5.77;3.40;;;;;;;-145.69;100.00;52450.31;5074234;28;20661;-81
2023/04/10 03:38:25;;;;;;;6.13;4.00;;;;;;;-145.69;100.00;52434.47;5074172;28;20195;-81
2023/04/10 03:40:52;;;;;;;6.07;3.13;;;;;;;-145.69;100.00;52462.22;5074027;28;20657;-80
2023/04/10 03:43:19;;;;;;;6.97;3.73;;;;;;;-145.69;100.00;52428.53;5074208;28;20730;-81
2023/04/10 03:45:47;;;;;;;6.67;3.40;;;;;;;-145.69;100.00;52454.28;5074498;28;20207;-81
2023/04/10 03:48:13;;;;;;;6.53;3.43;;;;;;;-145.69;100.00;52430.53;5074091;28;20202;-81
2023/04/10 03:50:39;;;;;;;5.33;3.20;;;;;;;-145.69;100.00;52404.78;5073989;28;20205;-81
2023/04/10 03:53:06;;;;;;;7.03;3.43;;;;;;;-145.69;100.00;52458.25;5073937;28;20203;-81
2023/04/10 03:55:32;;;;;;;7.13;3.50;;;;;;;-145.69;100.00;52416.66;5074244;28;20562;-79
2023/04/10 03:57:59;;;;;;;6.17;3.60;;;;;;;-145.69;100.00;52468.16;5074225;28;20199;-81
2023/04/10 04:00:27;;;;;;;5.73;3.37;;;;;;;-145.69;100.00;52414.69;5074069;28;20209;-80
2023/04/10 04:02:55;;;;;;;8.37;4.37;;;;;;;-145.69;100.00;52444.38;5073873;28;20199;-80
2023/04/10 04:05:21;;;;;;;6.87;3.93;;;;;;;-145.69;100.00;52420.63;5074084;28;20202;-80
2023/04/10 04:07:47;;;;;;;8.03;4.17;;;;;;;-145.69;100.00;52442.41;5074097;28;20538;-80
2023/04/10 04:10:14;;;;;;;4.77;3.20;;;;;;;-145.69;100.00;52482.00;5073471;28;20233;-81
2023/04/10 04:12:40;;;;;;;7.53;3.57;;;;;;;-145.69;100.00;52430.53;5073825;28;20289;-80
2023/04/10 04:15:08;;;;;;;5.03;3.33;;;;;;;-145.69;100.00;52424.59;5073810;28;20657;-80
2023/04/10 04:17:35;;;;;;;4.93;3.17;;;;;;;-145.69;93.01;52440.44;5073511;28;20217;-80
2023/04/10 04:20:03;;;;;;;5.30;3.20;;;;;;;-145.69;90.36;52422.59;5073679;28;20198;-81
2023/04/10 04:22:29;;;;;;;6.83;3.20;;;;;;;-145.69;88.95;52404.78;5074273;28;20657;-80
2023/04/10 04:24:56;;;;;;;5.80;3.10;;;;;;;-145.69;88.94;52408.75;5073459;28;20238;-80
2023/04/10 04:27:22;;;;;;;5.27;3.30;;;;;;;-145.69;85.83;52412.69;5073429;28;20210;-81
2023/04/10 04:29:49;;;;;;;5.50;3.17;;;;;;;-145.69;81.47;52434.47;5074636;28;20234;-80
2023/04/10 04:32:15;;;;;;;4.77;2.80;;;;;;;-145.69;77.41;52400.81;5073568;28;20205;-80
2023/04/10 04:34:42;;;;;;;5.50;2.70;;;;;;;-145.69;74.68;52388.94;5074203;28;20206;-80
2023/04/10 04:37:10;;;;;;;4.17;2.80;;;;;;;-145.69;75.65;52410.72;5074218;28;20199;-80
2023/04/10 04:39:36;;;;;;;5.10;2.90;;;;;;;-145.69;74.36;52432.50;5073484;28;20649;-79
2023/04/10 04:42:03;;;;;;;4.77;3.10;;;;;;;-145.69;70.68;52383.00;5076408;28;20373;-80
2023/04/10 04:44:29;;;;;;;5.53;2.80;;;;;;;-145.69;67.67;52379.03;5077697;28;20234;-82
2023/04/10 04:46:55;;;;;;;5.97;3.30;;;;;;;-145.69;70.02;52398.84;5077255;28;20205;-81
2023/04/10 04:49:22;;;;;;;5.17;2.73;;;;;;;-145.69;67.22;52412.69;5077201;28;20222;-81
2023/04/10 04:51:48;;;;;;;3.70;2.60;;;;;;;-145.69;64.06;52406.75;5077775;28;20199;-80
2023/04/10 04:54:16;;;;;;;5.10;2.73;;;;;;;-145.69;64.99;52369.13;5077591;28;20280;-80
2023/04/10 04:56:42;;;;;;;3.73;2.63;;;;;;;-145.69;65.96;52384.97;5076872;28;20570;-80
2023/04/10 04:59:09;;;;;;;4.47;2.70;;;;;;;-145.69;62.59;52408.75;5078868;28;20210;-78
2023/04/10 05:01:35;;;;;;;4.30;2.90;;;;;;;-145.69;61.76;52392.91;5077452;28;20210;-81
2023/04/10 05:04:02;;;;;;;4.93;2.70;;;;;;;-145.69;61.54;52420.63;5077529;28;20198;-81
2023/04/10 05:06:30;;;;;;;3.93;2.20;;;;;;;-145.69;61.21;52396.84;5077220;28;20198;-81
2023/04/10 05:08:56;;;;;;;4.27;2.30;;;;;;;-145.69;61.18;52365.16;5075859;28;20713;-81
2023/04/10 05:11:24;;;;;;;3.60;2.40;;;;;;;-145.69;58.36;52416.66;5075924;28;20191;-80
2023/04/10 05:13:51;;;;;;;3.83;2.40;;;;;;;-145.69;59.38;52394.88;5076042;28;20206;-80
2023/04/10 05:16:17;;;;;;;4.40;2.40;;;;;;;-145.69;58.60;52402.78;5076183;28;20205;-81
2023/04/10 05:18:44;;;;;;;3.87;2.40;;;;;;;-145.69;61.02;52404.78;5076096;28;20195;-80
2023/04/10 05:21:10;;;;;;;3.20;2.03;;;;;;;-145.69;57.79;52398.84;5078451;28;20202;-80
2023/04/10 05:23:37;;;;;;;4.30;2.33;;;;;;;-145.69;61.10;52392.91;5077097;28;20197;-80
2023/04/10 05:26:04;;;;;;;2.80;2.00;;;;;;;-145.69;57.43;52400.81;5075832;28;20210;-80
2023/04/10 05:28:32;;;;;;;4.37;2.67;;;;;;;-145.69;55.65;52369.13;5076837;28;20234;-80
2023/04/10 05:30:59;;;;;;;3.17;2.10;;;;;;;-145.69;53.27;52404.78;5078062;28;20234;-80
2023/04/10 05:33:25;;;;;;;3.53;2.20;;;;;;;-145.69;52.33;52416.66;5079285;28;20194;-80
2023/04/10 05:35:53;;;;;;;2.80;2.10;;;;;;;-145.69;53.48;52349.31;5079877;28;20206;-80
2023/04/10 05:38:19;;;;;;;2.83;2.03;;;;;;;-145.69;51.65;52353.28;5081113;28;20209;-81
2023/04/10 05:40:47;;;;;;;3.67;2.23;;;;;;;-145.69;52.31;52339.44;5080426;28;20604;-81
2023/04/10 05:43:13;;;;;;;4.20;2.27;;;;;;;-145.69;52.21;52412.69;5079738;28;20223;-81
2023/04/10 05:45:43;;;;;;;2.80;2.13;;;;;;;-145.69;51.96;52381.00;5080532;28;20288;-81
2023/04/10 05:48:10;;;;;;;3.63;2.20;;;;;;;-145.69;54.91;52392.91;5080016;28;20203;-81
2023/04/10 05:50:36;;;;;;;4.10;2.40;;;;;;;-145.69;50.97;52371.13;5079336;28;20230;-81
2023/04/10 05:53:03;;;;;;;3.60;1.80;;;;;;;-145.69;51.10;52373.09;5079779;28;20198;-80
2023/04/10 05:55:30;;;;;;;4.43;2.30;;;;;;;-145.69;53.23;52392.91;5078547;28;20692;-79
2023/04/10 05:57:57;;;;;;;3.03;2.00;;;;;;;-145.69;52.27;52377.06;5078760;28;20206;-80
2023/04/10 06:00:24;;;;;;;3.33;2.40;;;;;;;-145.69;51.23;52353.28;5078544;28;20198;-80
2023/04/10 06:02:52;;;;;;;3.63;1.80;;;;;;;-145.69;50.61;52375.06;5077695;28;20274;-80
2023/04/10 06:05:18;;;;;;;2.90;1.87;;;;;;;-145.69;49.35;52353.28;5077720;28;20655;-81
2023/04/10 06:07:45;;;;;;;3.23;2.03;;;;;;;-145.69;48.54;52365.16;5078262;28;20205;-80
2023/04/10 06:10:11;;;;;;;3.63;2.07;;;;;;;-145.69;49.08;52369.13;5078916;28;20227;-80
2023/04/10 06:12:38;;;;;;;2.50;2.00;;;;;;;-145.69;48.42;52375.06;5077906;28;20658;-80
2023/04/10 06:15:05;;;;;;;2.77;1.87;;;;;;;-145.69;49.91;52335.47;5078099;28;20672;-80
2023/04/10 06:17:31;;;;;;;3.10;2.30;;;;;;;-145.69;48.58;52341.41;5077133;28;20194;-81
2023/04/10 06:20:02;;;;;;;2.53;1.83;;;;;;;-145.69;48.71;52377.06;5077505;28;20600;-81
2023/04/10 06:22:29;;;;;;;3.47;2.10;;;;;;;-145.69;50.17;52357.25;5072949;28;20696;-81
2023/04/10 06:24:56;;;;;;;3.03;1.90;;;;;;;-145.69;48.03;52375.06;5077204;28;20199;-81
2023/04/10 06:27:22;;;;;;;3.33;1.87;;;;;;;-145.69;47.60;52327.53;5077698;28;20206;-81
2023/04/10 06:29:49;;;;;;;2.47;1.70;;;;;;;-145.69;47.57;52388.94;5077470;28;20701;-81
2023/04/10 06:32:15;;;;;;;2.65;1.80;;;;;;;-145.69;45.80;52353.28;5078970;28;20468;-80
2023/04/10 06:34:41;;;;;;;2.13;1.60;;;;;;;-145.69;46.17;52365.16;5079333;28;20349;-81
2023/04/10 06:37:10;;;;;;;2.40;1.70;;;;;;;-145.69;46.46;52327.53;5081013;28;20202;-81
2023/04/10 06:39:36;;;;;;;2.37;1.67;;;;;;;-145.69;46.10;52335.47;5080173;28;20203;-81
2023/04/10 06:42:03;;;;;;;2.90;1.60;;;;;;;-145.69;45.38;52361.22;5079193;28;20199;-81
2023/04/10 06:44:30;;;;;;;1.77;1.57;;;;;;;-145.69;46.64;52361.22;5076351;28;20578;-81
2023/04/10 06:46:56;;;;;;;2.73;1.77;;;;;;;-145.69;45.66;52355.28;5077093;28;20645;-80
2023/04/10 06:49:23;;;;;;;2.20;1.63;;;;;;;-145.69;46.34;52351.31;5076817;28;20207;-80
2023/04/10 06:51:49;;;;;;;2.77;2.07;;;;;;;-145.69;46.78;52357.25;5074997;28;20213;-80
2023/04/10 06:54:17;;;;;;;3.03;1.83;;;;;;;-145.69;47.42;52373.09;5076140;28;20226;-80
2023/04/10 06:56:44;;;;;;;2.53;1.60;;;;;;;-145.69;46.79;52369.13;5075762;28;20205;-80
2023/04/10 06:59:10;;;;;;;2.03;1.60;;;;;;;-145.69;48.42;52345.38;5075301;28;20203;-80
2023/04/10 07:01:37;;;;;;;2.60;1.70;;;;;;;-145.69;47.71;52359.22;5075259;28;20654;-80
2023/04/10 07:04:03;;;;;;;4.43;1.67;;;;;;;-145.69;47.32;52345.38;5075627;28;20826;-80
2023/04/10 07:06:30;;;;;;;2.83;1.93;;;;;;;-145.69;48.13;52345.38;5075032;28;20205;-81
2023/04/10 07:08:56;;;;;;;2.30;1.50;;;;;;;-145.69;47.83;52341.41;5075392;28;20205;-80
2023/04/10 07:11:24;;;;;;;1.97;1.60;;;;;;;-145.69;48.53;52349.31;5075089;28;20230;-80
2023/04/10 07:13:52;;;;;;;1.97;1.70;;;;;;;-145.69;48.67;52361.22;5075807;28;20199;-80
2023/04/10 07:16:18;;;;;;;2.73;2.00;;;;;;;-145.69;50.30;52355.28;5075611;28;20206;-81
2023/04/10 07:18:45;;;;;;;3.80;2.10;;;;;;;-145.69;48.95;52351.31;5076597;28;20226;-82
2023/04/10 07:21:12;;;;;;;3.10;2.00;;;;;;;-145.69;49.45;52333.47;5076136;28;20229;-81
2023/04/10 07:23:38;;;;;;;2.77;1.77;;;;;;;-145.69;47.07;52325.56;5076777;28;20207;-82
2023/04/10 07:26:05;;;;;;;3.83;1.83;;;;;;;-145.69;50.11;52337.44;5077184;28;20225;-81
2023/04/10 07:28:33;;;;;;;2.63;1.70;;;;;;;-145.69;50.93;52321.59;5076325;28;20195;-81
2023/04/10 07:31:00;;;;;;;3.47;2.03;;;;;;;-145.69;49.99;52357.25;5074903;28;20716;-81
2023/04/10 07:33:26;;;;;;;2.33;1.60;;;;;;;-145.69;49.13;52361.22;5075099;28;20218;-83
2023/04/10 07:35:53;;;;;;;2.43;1.50;;;;;;;-145.69;52.11;52319.63;5076023;28;20231;-81
2023/04/10 07:38:19;;;;;;;2.17;1.63;;;;;;;-145.69;52.29;52339.44;5074859;28;20207;-80
2023/04/10 07:40:46;;;;;;;3.50;1.87;;;;;;;-145.69;51.15;52311.69;5074070;28;20195;-80
2023/04/10 07:43:13;;;;;;;2.70;1.80;;;;;;;-145.69;52.63;52327.53;5054281;28;20304;-81
2023/04/10 07:45:40;;;;;;;1.60;1.50;;;;;;;-145.69;47.15;52307.75;5052803;28;20199;-82
2023/04/10 07:48:07;;;;;;;2.30;1.50;;;;;;;-145.69;47.92;52327.53;5050653;28;20199;-81
2023/04/10 07:50:34;;;;;;;1.83;1.60;;;;;;;-145.69;48.14;52329.53;5053054;28;20235;-81
2023/04/10 07:53:02;;;;;;;2.17;1.43;;;;;;;-145.69;47.03;52303.78;5053753;28;20201;-81
2023/04/10 07:55:28;;;;;;;2.10;1.70;;;;;;;-145.69;46.47;52321.59;5052956;28;20262;-81
2023/04/10 07:57:55;;;;;;;3.20;1.40;;;;;;;-145.69;44.70;52325.56;5053724;28;20203;-82
2023/04/10 08:00:22;;;;;;;3.30;1.80;;;;;;;-145.69;45.79;52323.59;5054973;28;20210;-81
2023/04/10 08:02:50;;;;;;;1.90;1.50;;;;;;;-145.69;45.37;52293.88;5052386;28;20203;-81
2023/04/10 08:05:16;;;;;;;1.93;1.67;;;;;;;-145.69;45.74;52331.50;5052331;28;20200;-81
2023/04/10 08:07:43;;;;;;;2.10;1.50;;;;;;;-145.69;43.81;52325.56;5057442;28;20935;-81
2023/04/10 08:10:10;;;;;;;2.43;1.57;;;;;;;-145.69;44.47;52317.66;5072464;28;20218;-81
2023/04/10 08:12:36;;;;;;;5.77;1.67;;;;;;;-145.69;43.85;52337.44;5073055;28;20203;-81
2023/04/10 08:15:03;;;;;;;3.03;1.90;;;;;;;-145.69;43.18;52349.31;5056325;28;20211;-81
2023/04/10 08:17:29;;;;;;;2.53;1.70;;;;;;;-145.69;43.98;52301.81;5053403;28;20221;-82
2023/04/10 08:19:57;;;;;;;2.27;1.63;;;;;;;-145.69;42.74;52317.66;5053878;28;20629;-81
2023/04/10 08:22:24;;;;;;;2.10;1.37;;;;;;;-145.69;43.20;52317.66;5053901;28;20209;-81
2023/04/10 08:24:50;;;;;;;2.10;1.63;;;;;;;-145.69;42.00;52307.75;5071978;28;20256;-81
2023/04/10 08:27:17;;;;;;;3.53;1.70;;;;;;;-145.69;43.23;52297.84;5074566;28;20660;-81
2023/04/10 08:29:43;;;;;;;2.73;1.70;;;;;;;-145.69;42.98;52297.84;5073142;28;20206;-81
2023/04/10 08:32:10;;;;;;;2.77;1.60;;;;;;;-145.69;42.80;52321.59;5073575;28;20207;-82
2023/04/10 08:34:36;;;;;;;2.20;1.60;;;;;;;-145.69;42.46;52285.97;5073450;28;20202;-81
2023/04/10 08:37:08;;;;;;;2.30;1.50;;;;;;;-145.69;41.00;52311.69;5073632;28;20400;-81
2023/04/10 08:39:35;;;;;;;2.10;1.50;;;;;;;-145.69;41.19;52301.81;5073360;28;20198;-82
2023/04/10 08:42:02;;;;;;;3.30;1.80;;;;;;;-145.69;42.36;52272.09;5073182;28;20231;-82
2023/04/10 08:44:28;;;;;;;4.10;1.70;;;;;;;-145.69;43.41;52295.84;5072912;28;20763;-81
2023/04/10 08:46:58;;;;;;;2.17;1.50;;;;;;;-145.69;41.80;52293.88;5073226;28;20199;-81
2023/04/10 08:49:31;;;;;;;1.90;1.60;;;;;;;-145.69;41.62;52280.00;5073184;28;20589;-82
2023/04/10 08:51:59;;;;;;;3.23;1.90;;;;;;;-145.69;42.77;52278.03;5073132;28;20266;-81
2023/04/10 08:54:29;;;;;;;2.55;1.80;;;;;;;-145.69;41.78;52268.13;5072725;28;20194;-81
2023/04/10 08:56:57;;;;;;;2.53;1.45;;;;;;;-145.69;41.66;52289.91;5072958;28;20203;-80
2023/04/10 08:59:24;;;;;;;1.92;1.60;;;;;;;-145.69;42.47;52262.19;5073071;28;20664;-81
2023/04/10 09:01:50;;;;;;;4.20;1.53;;;;;;;-145.69;42.29;52238.44;5072864;28;20257;-81
2023/04/10 09:04:17;;;;;;;3.05;1.83;;;;;;;-145.69;43.00;52293.88;5072895;28;20202;-81
2023/04/10 09:06:44;;;;;;;2.27;1.53;;;;;;;-145.69;41.76;52266.16;5072446;28;20242;-81
2023/04/10 09:09:10;;;;;;;1.95;1.60;;;;;;;-145.69;42.44;52293.88;5073374;28;20202;-81
2023/04/10 09:11:59;;;;;;;2.50;1.58;;;;;;;-145.69;42.53;52230.50;5073067;28;20667;-81
2023/04/10 09:14:27;;;;;;;2.90;1.80;;;;;;;-145.69;42.73;52266.16;5073035;28;20194;-81
2023/04/10 09:17:10;;;;;;;2.33;1.57;;;;;;;-145.69;42.33;52285.97;5072482;28;20673;-81
2023/04/10 09:19:36;;;;;;;2.55;1.48;;;;;;;-145.69;42.50;52272.09;5074060;28;20257;-80
2023/04/10 09:22:03;;;;;;;1.88;1.60;;;;;;;-145.69;43.35;52285.97;5075108;28;20214;-80
2023/04/10 09:24:29;;;;;;;4.32;1.83;;;;;;;-145.69;42.76;52262.19;5072989;28;20191;-81
2023/04/10 09:26:57;;;;;;;1.85;1.50;;;;;;;-145.69;40.94;52283.97;5073413;28;20205;-81
2023/04/10 09:29:25;;;;;;;1.65;1.45;;;;;;;-145.69;41.88;52258.22;5073214;28;20669;-81
2023/04/10 09:31:52;;;;;;;2.42;1.35;;;;;;;-145.69;40.63;52254.28;5074788;28;20234;-80
2023/04/10 09:34:21;;;;;;;1.63;1.30;;;;;;;-145.69;40.17;52282.00;5073337;28;20206;-80
2023/04/10 09:36:54;;;;;;;2.25;1.52;;;;;;;-145.69;40.79;52266.16;5074196;28;20198;-80
2023/04/10 09:39:20;;;;;;;2.35;1.10;;;;;;;-145.69;40.85;52256.25;5073662;28;20210;-80
2023/04/10 09:41:48;;;;;;;1.38;1.13;;;;;;;-145.69;38.66;52252.28;5073060;28;20223;-80
2023/04/10 09:44:18;;;;;;;1.55;1.23;;;;;;;-145.69;40.57;52222.59;5072525;28;20292;-80
2023/04/10 09:46:45;;;;;;;1.33;1.02;;;;;;;-145.69;39.18;52234.47;5074210;28;20223;-81
2023/04/10 09:49:11;;;;;;;1.10;1.00;;;;;;;-145.69;41.29;52274.06;5073643;28;20203;-81
2023/04/10 09:51:38;;;;;;;1.20;1.00;;;;;;;-145.69;37.13;52234.47;5072876;28;20824;-80
2023/04/10 09:54:05;;;;;;;1.08;0.90;;;;;;;-145.69;36.52;52280.00;5072419;28;20264;-80
2023/04/10 09:56:38;;;;;;;1.67;1.00;;;;;;;-145.69;37.52;52276.06;5073091;28;20201;-81
2023/04/10 09:59:06;;;;;;;1.35;1.17;;;;;;;-145.69;34.97;52230.50;5075850;28;20194;-81
2023/04/10 10:01:42;;;;;;;0.90;0.90;;;;;;;-145.69;40.25;52236.44;5072534;28;20645;-82
2023/04/10 10:04:10;;;;;;;1.90;1.08;;;;;;;-145.69;39.18;52232.50;5078643;28;20195;-81
2023/04/10 10:06:38;;;;;;;1.25;0.95;;;;;;;-145.69;34.76;52224.56;5075353;28;20199;-80
2023/04/10 10:09:05;;;;;;;0.90;0.80;;;;;;;-145.69;33.92;52254.28;5077337;28;20203;-82
2023/04/10 10:11:33;;;;;;;1.70;0.95;;;;;;;-145.69;35.28;52266.16;5071761;28;20235;-82
2023/04/10 10:14:03;;;;;;;2.60;1.20;;;;;;;-145.69;34.79;52248.34;5064203;28;20625;-83
2023/04/10 10:16:34;;;;;;;1.25;0.90;;;;;;;-145.69;35.94;52220.59;5072937;28;20198;-82
2023/04/10 10:19:09;;;;;;;1.50;1.20;;;;;;;-145.69;35.02;52224.56;5077865;28;20238;-82
2023/04/10 10:21:36;;;;;;;1.10;0.88;;;;;;;-145.69;34.49;52234.47;5077525;28;20251;-82
2023/04/10 10:24:07;;;;;;;1.83;0.70;;;;;;;-145.69;33.10;52218.63;5076418;28;20199;-81
2023/04/10 10:26:35;;;;;;;1.10;0.85;;;;;;;-145.69;33.08;52246.34;5076076;28;20209;-81
2023/04/10 10:29:03;;;;;;;0.73;0.68;;;;;;;-145.69;33.25;52226.53;5076619;28;20199;-82
2023/04/10 10:31:32;;;;;;;0.93;0.82;;;;;;;-145.69;32.78;52222.59;5076539;28;20222;-82
2023/04/10 10:34:03;;;;;;;0.80;0.80;;;;;;;-145.69;34.35;52244.38;5077620;28;20209;-83
2023/04/10 10:36:32;;;;;;;1.25;0.80;;;;;;;-145.69;33.14;52226.53;5076134;28;20198;-83
2023/04/10 10:39:14;;;;;;;0.80;0.80;;;;;;;-145.69;35.34;52238.44;5077550;28;20199;-82
2023/04/10 10:41:44;;;;;;;0.70;0.65;;;;;;;-145.69;32.84;52218.63;5075935;28;20241;-82
2023/04/10 10:44:20;;;;;;;0.70;0.70;;;;;;;-145.69;33.50;52226.53;5075718;28;20237;-83
2023/04/10 10:46:49;;;;;;;1.02;0.70;;;;;;;-145.69;31.44;52226.53;5075623;28;20198;-82
2023/04/10 10:49:16;;;;;;;1.00;0.80;;;;;;;-145.69;32.21;52216.66;5075964;28;20206;-81
2023/04/10 10:51:45;;;;;;;0.68;0.57;;;;;;;-145.69;33.48;52224.56;5076306;28;20238;-81
2023/04/10 10:54:31;;;;;;;0.65;0.65;;;;;;;-145.69;32.89;52210.72;5075541;28;20671;-82
2023/04/10 10:56:58;;;;;;;0.70;0.70;;;;;;;-145.69;32.20;52244.38;5075407;28;20199;-82
2023/04/10 10:59:57;;;;;;;0.75;0.75;;;;;;;-145.69;32.30;52196.84;5075664;28;20238;-81
2023/04/10 11:02:24;;;;;;;1.00;0.80;;;;;;;-145.69;31.72;52202.78;5070746;28;20194;-81
2023/04/10 11:04:50;;;;;;;0.80;0.80;;;;;;;-145.69;32.34;52214.66;5075936;28;20195;-81
2023/04/10 11:07:18;;;;;;;0.65;0.65;;;;;;;-145.69;32.15;52210.72;5075864;28;20226;-81
2023/04/10 11:09:51;;;;;;;3.47;0.93;;;;;;;-145.69;32.54;52194.88;5074378;28;20711;-82
2023/04/10 11:12:22;;;;;;;1.02;0.95;;;;;;;-145.69;31.77;52208.72;5075291;28;20227;-82
2023/04/10 11:14:59;;;;;;;0.65;0.65;;;;;;;-145.69;32.66;52206.75;5075726;28;20202;-83
2023/04/10 11:17:52;;;;;;;0.70;0.70;;;;;;;-145.69;33.85;52230.50;5075812;28;20229;-83